^^
Datos históricos de la estación: Murcia-Puente Tocinos
Diario Informe para Enero 18, 2019 Unidades:  Ambas    Ingés   Métrico
Diario Semanal Mensual Anual
  Máxima: Mínima: Promedio:
Temperatura: 74.7 °F /  23.7 °C 59.7 °F /  15.4 °C 67.5 °F /  19.7 °C
Punto de rocio: 57 °F /  13.9 °C 37 °F /  2.8 °C 44.8 °F /  7.1 °C
Humedad: 80% 26% 46%
Velocidad viento: 9.7mph /  15.6km/h - 4.4mph /  7.1km/h
Racha viento: 19mph /  30.6km/h - -
Viento- - SSE
Presión: 29.8 in /  1009.3 hPa 29.7 in /  1005.2 hPa -
Precipitación: 0 in /  0.0 mm    
 
 
Tabla de datos para Enero 18, 2019
Hora Temperatura Punto de rocio Presión Viento Velocidad viento Racha viento Humedad Intensidad lluvia(por hora) Nubes
00:04 68.9 °F /  20.5 °C 39.7 °F /  4.3 °C 29.8in /  1008.1hPa ENE 2.4mph /  3.9km/h 5mph /  8km/h 34.5% 0in /  0.0mm
00:09 69.1 °F /  20.6 °C 40.1 °F /  4.5 °C 29.8in /  1008.0hPa ENE 2.4mph /  3.9km/h 4mph /  6.4km/h 34.9% 0in /  0.0mm
00:14 68.9 °F /  20.5 °C 39.6 °F /  4.2 °C 29.8in /  1008.0hPa NE 2.4mph /  3.9km/h 5mph /  8km/h 34.3% 0in /  0.0mm
00:19 69.1 °F /  20.6 °C 39.7 °F /  4.3 °C 29.8in /  1008.0hPa NE 2.2mph /  3.6km/h 5mph /  8km/h 34.3% 0in /  0.0mm
00:24 69.1 °F /  20.6 °C 39.7 °F /  4.3 °C 29.8in /  1008.0hPa NE 2mph /  3.2km/h 3mph /  4.8km/h 34.4% 0in /  0.0mm
00:29 69.1 °F /  20.6 °C 40.8 °F /  4.9 °C 29.8in /  1008.0hPa NE 1.2mph /  2km/h 2.3mph /  3.7km/h 36% 0in /  0.0mm
00:34 68.7 °F /  20.4 °C 40.3 °F /  4.6 °C 29.8in /  1008.1hPa Calm   2mph /  3.2km/h 35.4% 0in /  0.0mm
00:39 68.7 °F /  20.4 °C 40.1 °F /  4.5 °C 29.8in /  1008.1hPa Calm   1.4mph /  2.3km/h 35.2% 0in /  0.0mm
00:44 68.5 °F /  20.3 °C 40.5 °F /  4.7 °C 29.8in /  1008.1hPa Calm   2.9mph /  4.7km/h 36% 0in /  0.0mm
00:49 68.5 °F /  20.3 °C 40.5 °F /  4.7 °C 29.8in /  1008.1hPa NE 0.6mph /  0.9km/h 3.6mph /  5.8km/h 35.9% 0in /  0.0mm
00:54 68.5 °F /  20.3 °C 39.7 °F /  4.3 °C 29.8in /  1008.0hPa NE 1.4mph /  2.2km/h 4mph /  6.4km/h 35% 0in /  0.0mm
00:59 68.5 °F /  20.3 °C 39.7 °F /  4.3 °C 29.8in /  1008.0hPa NE 1.6mph /  2.6km/h 3mph /  4.8km/h 35% 0in /  0.0mm
01:04 68.7 °F /  20.4 °C 40.5 °F /  4.7 °C 29.8in /  1008.1hPa NE 2mph /  3.2km/h 3.5mph /  5.6km/h 35.9% 0in /  0.0mm
01:09 68.7 °F /  20.4 °C 40.6 °F /  4.8 °C 29.8in /  1008.1hPa NE 1.9mph /  3.1km/h 3mph /  4.8km/h 35.9% 0in /  0.0mm
01:14 68.7 °F /  20.4 °C 40.5 °F /  4.7 °C 29.8in /  1008.1hPa NE 1.8mph /  2.9km/h 2.4mph /  3.9km/h 35.8% 0in /  0.0mm
01:19 68.7 °F /  20.4 °C 39.9 °F /  4.4 °C 29.8in /  1008.1hPa NE 1.7mph /  2.7km/h 2.9mph /  4.7km/h 35.1% 0in /  0.0mm
01:24 68.7 °F /  20.4 °C 40.6 °F /  4.8 °C 29.8in /  1008.0hPa NE 1.4mph /  2.2km/h 3mph /  4.8km/h 35.9% 0in /  0.0mm
01:29 68.7 °F /  20.4 °C 41.2 °F /  5.1 °C 29.8in /  1008.0hPa NE 1.4mph /  2.2km/h 3mph /  4.8km/h 36.7% 0in /  0.0mm
01:34 68.7 °F /  20.4 °C 41.4 °F /  5.2 °C 29.8in /  1008.0hPa ONO 1.4mph /  2.2km/h 4.3mph /  6.9km/h 37.1% 0in /  0.0mm
01:39 68.5 °F /  20.3 °C 40.6 °F /  4.8 °C 29.8in /  1007.9hPa Oeste 1.6mph /  2.5km/h 5mph /  8km/h 36.2% 0in /  0.0mm
01:44 68.4 °F /  20.2 °C 41.2 °F /  5.1 °C 29.8in /  1007.9hPa ONO 2.4mph /  3.9km/h 5mph /  8km/h 37% 0in /  0.0mm
01:49 68.4 °F /  20.2 °C 41.5 °F /  5.3 °C 29.8in /  1007.9hPa ONO 2mph /  3.2km/h 4mph /  6.4km/h 37.8% 0in /  0.0mm
01:54 68 °F /  20 °C 42.1 °F /  5.6 °C 29.8in /  1007.9hPa NE 1.4mph /  2.2km/h 4.6mph /  7.4km/h 38.9% 0in /  0.0mm
01:59 67.5 °F /  19.7 °C 42.6 °F /  5.9 °C 29.8in /  1007.9hPa Este 1.6mph /  2.5km/h 5mph /  8km/h 40.5% 0in /  0.0mm
02:04 66.9 °F /  19.4 °C 42.6 °F /  5.9 °C 29.8in /  1007.9hPa Este 1.8mph /  2.9km/h 3mph /  4.8km/h 41.2% 0in /  0.0mm
02:09 66.7 °F /  19.3 °C 42.6 °F /  5.9 °C 29.8in /  1007.9hPa Este 1.1mph /  1.8km/h 3mph /  4.8km/h 41.6% 0in /  0.0mm
02:14 66.6 °F /  19.2 °C 42.8 °F /  6 °C 29.8in /  1007.9hPa Calm   3mph /  4.8km/h 42% 0in /  0.0mm
02:19 66.4 °F /  19.1 °C 42.6 °F /  5.9 °C 29.8in /  1007.9hPa Calm   2.3mph /  3.7km/h 42.1% 0in /  0.0mm
02:24 66.4 °F /  19.1 °C 42.8 °F /  6 °C 29.8in /  1007.8hPa Calm   3.1mph /  5km/h 42.3% 0in /  0.0mm
02:29 66.6 °F /  19.2 °C 42.4 °F /  5.8 °C 29.8in /  1007.8hPa Sur 0.7mph /  1.1km/h 6.9mph /  11.1km/h 41.8% 0in /  0.0mm
02:34 66.4 °F /  19.1 °C 43.2 °F /  6.2 °C 29.8in /  1007.8hPa SE 1.8mph /  2.9km/h 8.7mph /  14km/h 43% 0in /  0.0mm
02:39 65.1 °F /  18.4 °C 42.4 °F /  5.8 °C 29.8in /  1007.7hPa Sur 3.3mph /  5.3km/h 9.2mph /  14.8km/h 43.5% 0in /  0.0mm
02:44 64.9 °F /  18.3 °C 41.7 °F /  5.4 °C 29.8in /  1007.7hPa SSE 5.9mph /  9.5km/h 7mph /  11.3km/h 42.8% 0in /  0.0mm
02:49 64.9 °F /  18.3 °C 41.4 °F /  5.2 °C 29.8in /  1007.7hPa Sur 5.3mph /  8.6km/h 6mph /  9.7km/h 42.1% 0in /  0.0mm
02:54 65.1 °F /  18.4 °C 41.4 °F /  5.2 °C 29.8in /  1007.4hPa SSO 4.3mph /  6.9km/h 6mph /  9.7km/h 42% 0in /  0.0mm
02:59 65.1 °F /  18.4 °C 41.4 °F /  5.2 °C 29.8in /  1007.4hPa SO 3.9mph /  6.3km/h 5.2mph /  8.4km/h 41.8% 0in /  0.0mm
03:04 65.3 °F /  18.5 °C 41 °F /  5 °C 29.8in /  1007.4hPa OSO 3.1mph /  5km/h 5mph /  8km/h 41% 0in /  0.0mm
03:09 65.5 °F /  18.6 °C 41 °F /  5 °C 29.8in /  1007.4hPa Oeste 3.3mph /  5.3km/h 5.2mph /  8.4km/h 41% 0in /  0.0mm
03:14 65.3 °F /  18.5 °C 41 °F /  5 °C 29.8in /  1007.4hPa Oeste 3.6mph /  5.8km/h 5mph /  8km/h 41% 0in /  0.0mm
03:19 65.1 °F /  18.4 °C 41.9 °F /  5.5 °C 29.8in /  1007.4hPa SE 3.3mph /  5.3km/h 6.2mph /  10km/h 42.7% 0in /  0.0mm
03:24 64.4 °F /  18 °C 42.1 °F /  5.6 °C 29.8in /  1007.4hPa SSE 2.9mph /  4.7km/h 6mph /  9.7km/h 44% 0in /  0.0mm
03:29 64.2 °F /  17.9 °C 41.7 °F /  5.4 °C 29.8in /  1007.4hPa SSE 3mph /  4.8km/h 5mph /  8km/h 44% 0in /  0.0mm
03:34 64 °F /  17.8 °C 41.9 °F /  5.5 °C 29.8in /  1007.4hPa Sur 3.1mph /  5km/h 5.2mph /  8.4km/h 44.4% 0in /  0.0mm
03:39 64 °F /  17.8 °C 42.3 °F /  5.7 °C 29.7in /  1007.1hPa SSO 3.1mph /  5km/h 5.2mph /  8.4km/h 44.9% 0in /  0.0mm
03:44 64 °F /  17.8 °C 41.7 °F /  5.4 °C 29.7in /  1007.1hPa SSO 3.1mph /  5km/h 5mph /  8km/h 44% 0in /  0.0mm
03:49 64 °F /  17.8 °C 41.7 °F /  5.4 °C 29.7in /  1007.1hPa SSO 2.8mph /  4.5km/h 5mph /  8km/h 44% 0in /  0.0mm
03:54 64 °F /  17.8 °C 41.9 °F /  5.5 °C 29.7in /  1007.0hPa Sur 2.4mph /  3.9km/h 5.9mph /  9.5km/h 44.4% 0in /  0.0mm
03:59 64 °F /  17.8 °C 41.4 °F /  5.2 °C 29.7in /  1007.0hPa SSO 2.9mph /  4.7km/h 8.1mph /  13km/h 43.6% 0in /  0.0mm
04:04 64 °F /  17.8 °C 40.6 °F /  4.8 °C 29.7in /  1007.0hPa SO 3.6mph /  5.8km/h 8.5mph /  13.7km/h 42.4% 0in /  0.0mm
04:09 64 °F /  17.8 °C 40.5 °F /  4.7 °C 29.7in /  1007.0hPa SSO 3.7mph /  6km/h 9mph /  14.5km/h 42% 0in /  0.0mm
04:14 64 °F /  17.8 °C 39.9 °F /  4.4 °C 29.7in /  1007.0hPa SSO 4mph /  6.5km/h 5.2mph /  8.4km/h 41.1% 0in /  0.0mm
04:19 64.2 °F /  17.9 °C 39.9 °F /  4.4 °C 29.7in /  1007.0hPa SO 3.4mph /  5.5km/h 5mph /  8km/h 41.1% 0in /  0.0mm
04:24 64.2 °F /  17.9 °C 41 °F /  5 °C 29.7in /  1006.8hPa NO 2.4mph /  3.9km/h 5mph /  8km/h 42.7% 0in /  0.0mm
04:29 64 °F /  17.8 °C 41.7 °F /  5.4 °C 29.7in /  1006.8hPa NO 2mph /  3.2km/h 5.2mph /  8.4km/h 44.1% 0in /  0.0mm
04:34 63.3 °F /  17.4 °C 42.4 °F /  5.8 °C 29.7in /  1006.8hPa SE 1.4mph /  2.2km/h 6.2mph /  10km/h 46.3% 0in /  0.0mm
04:39 62.4 °F /  16.9 °C 42.4 °F /  5.8 °C 29.7in /  1006.7hPa SSE 2.2mph /  3.6km/h 6.2mph /  10km/h 48% 0in /  0.0mm
04:44 61.7 °F /  16.5 °C 41.9 °F /  5.5 °C 29.7in /  1006.7hPa SSE 3.6mph /  5.8km/h 6.9mph /  11.1km/h 48.1% 0in /  0.0mm
04:49 61.5 °F /  16.4 °C 41.4 °F /  5.2 °C 29.7in /  1006.7hPa SSE 3.7mph /  6km/h 7mph /  11.3km/h 47.6% 0in /  0.0mm
04:54 61.9 °F /  16.6 °C 41.4 °F /  5.2 °C 29.7in /  1006.6hPa SSE 4mph /  6.5km/h 6mph /  9.7km/h 47% 0in /  0.0mm
04:59 62.1 °F /  16.7 °C 41.2 °F /  5.1 °C 29.7in /  1006.6hPa Sur 3.5mph /  5.7km/h 5mph /  8km/h 46.3% 0in /  0.0mm
05:04 62.2 °F /  16.8 °C 41.4 °F /  5.2 °C 29.7in /  1006.7hPa Sur 2.9mph /  4.7km/h 4.7mph /  7.6km/h 46.5% 0in /  0.0mm
05:09 62.1 °F /  16.7 °C 41.5 °F /  5.3 °C 29.7in /  1006.7hPa Sur 2.7mph /  4.3km/h 5mph /  8km/h 46.8% 0in /  0.0mm
05:14 62.1 °F /  16.7 °C 41.7 °F /  5.4 °C 29.7in /  1006.7hPa Sur 2.4mph /  3.9km/h 5mph /  8km/h 47.3% 0in /  0.0mm
05:19 62.1 °F /  16.7 °C 42.1 °F /  5.6 °C 29.7in /  1006.7hPa Sur 1.4mph /  2.3km/h 2mph /  3.2km/h 47.9% 0in /  0.0mm
05:24 62.1 °F /  16.7 °C 41.5 °F /  5.3 °C 29.7in /  1006.6hPa Calm   4.6mph /  7.4km/h 47% 0in /  0.0mm
05:29 62.2 °F /  16.8 °C 41.5 °F /  5.3 °C 29.7in /  1006.6hPa Sur 0.7mph /  1.1km/h 5mph /  8km/h 46.6% 0in /  0.0mm
05:34 62.4 °F /  16.9 °C 42.3 °F /  5.7 °C 29.7in /  1006.6hPa Sur 1.8mph /  2.9km/h 3mph /  4.8km/h 47.5% 0in /  0.0mm
05:39 62.4 °F /  16.9 °C 42.1 °F /  5.6 °C 29.7in /  1006.6hPa Sur 1.7mph /  2.7km/h 4.6mph /  7.4km/h 47.3% 0in /  0.0mm
05:44 62.4 °F /  16.9 °C 42.4 °F /  5.8 °C 29.7in /  1006.6hPa Sur 1.4mph /  2.2km/h 5mph /  8km/h 48% 0in /  0.0mm
05:49 62.2 °F /  16.8 °C 42.3 °F /  5.7 °C 29.7in /  1006.6hPa Sur 0.8mph /  1.3km/h   47.8% 0in /  0.0mm
05:54 62.2 °F /  16.8 °C 41.7 °F /  5.4 °C 29.7in /  1006.4hPa Calm   3.6mph /  5.8km/h 47% 0in /  0.0mm
05:59 62.2 °F /  16.8 °C 42.4 °F /  5.8 °C 29.7in /  1006.4hPa OSO 0.6mph /  1km/h 4.6mph /  7.4km/h 48.3% 0in /  0.0mm
06:04 62.1 °F /  16.7 °C 42.4 °F /  5.8 °C 29.7in /  1006.4hPa OSO 1.4mph /  2.2km/h 5mph /  8km/h 48.6% 0in /  0.0mm
06:09 61.7 °F /  16.5 °C 42.3 °F /  5.7 °C 29.7in /  1006.4hPa OSO 1.4mph /  2.2km/h 2.3mph /  3.7km/h 49% 0in /  0.0mm
06:14 61.5 °F /  16.4 °C 42.6 °F /  5.9 °C 29.7in /  1006.4hPa OSO 1.4mph /  2.2km/h 2mph /  3.2km/h 49.9% 0in /  0.0mm
06:19 61.3 °F /  16.3 °C 42.4 °F /  5.8 °C 29.7in /  1006.4hPa OSO 0.8mph /  1.3km/h 2.9mph /  4.7km/h 50% 0in /  0.0mm
06:24 61.2 °F /  16.2 °C 42.1 °F /  5.6 °C 29.7in /  1006.3hPa Calm   3mph /  4.8km/h 49.2% 0in /  0.0mm
06:29 61.2 °F /  16.2 °C 41.7 °F /  5.4 °C 29.7in /  1006.3hPa OSO 0.6mph /  0.9km/h 3.6mph /  5.8km/h 48.7% 0in /  0.0mm
06:34 61 °F /  16.1 °C 41.4 °F /  5.2 °C 29.7in /  1006.3hPa OSO 1.4mph /  2.2km/h 4mph /  6.4km/h 48.4% 0in /  0.0mm
06:39 61 °F /  16.1 °C 41.7 °F /  5.4 °C 29.7in /  1006.3hPa OSO 0.9mph /  1.4km/h 2.3mph /  3.7km/h 49% 0in /  0.0mm
06:44 60.8 °F /  16 °C 42.1 °F /  5.6 °C 29.7in /  1006.3hPa Calm   3.6mph /  5.8km/h 50.3% 0in /  0.0mm
06:49 60.6 °F /  15.9 °C 42.4 °F /  5.8 °C 29.7in /  1006.5hPa Calm   4.6mph /  7.4km/h 51% 0in /  0.0mm
06:54 60.4 °F /  15.8 °C 42.3 °F /  5.7 °C 29.7in /  1006.5hPa Calm   5mph /  8km/h 51.1% 0in /  0.0mm
06:59 60.3 °F /  15.7 °C 42.1 °F /  5.6 °C 29.7in /  1006.5hPa NNO 0.6mph /  0.9km/h 2.9mph /  4.7km/h 51.1% 0in /  0.0mm
07:04 60.1 °F /  15.6 °C 42.1 °F /  5.6 °C 29.7in /  1006.6hPa North 1.4mph /  2.2km/h 4.6mph /  7.4km/h 51.2% 0in /  0.0mm
07:09 60.1 °F /  15.6 °C 41 °F /  5 °C 29.7in /  1006.6hPa Este 1.6mph /  2.6km/h 5mph /  8km/h 49.5% 0in /  0.0mm
07:14 59.7 °F /  15.4 °C 40.6 °F /  4.8 °C 29.7in /  1006.6hPa SE 2mph /  3.2km/h 5mph /  8km/h 49.3% 0in /  0.0mm
07:19 59.7 °F /  15.4 °C 40.8 °F /  4.9 °C 29.7in /  1006.7hPa SE 2.4mph /  3.8km/h 5.4mph /  8.7km/h 49.6% 0in /  0.0mm
07:24 59.7 °F /  15.4 °C 41 °F /  5 °C 29.7in /  1006.7hPa SE 2.9mph /  4.7km/h 5mph /  8km/h 50% 0in /  0.0mm
07:29 59.9 °F /  15.5 °C 40.8 °F /  4.9 °C 29.7in /  1006.7hPa SSE 2.3mph /  3.7km/h 4.7mph /  7.6km/h 49.1% 0in /  0.0mm
07:34 60.4 °F /  15.8 °C 41.2 °F /  5.1 °C 29.7in /  1006.9hPa SSE 1.4mph /  2.2km/h 5.9mph /  9.5km/h 49% 0in /  0.0mm
07:39 60.6 °F /  15.9 °C 41.5 °F /  5.3 °C 29.7in /  1006.9hPa Sur 2.1mph /  3.3km/h 6mph /  9.7km/h 49.4% 0in /  0.0mm
07:44 61 °F /  16.1 °C 42.1 °F /  5.6 °C 29.7in /  1006.9hPa SSO 3.1mph /  5km/h 5mph /  8km/h 50% 0in /  0.0mm
07:49 61 °F /  16.1 °C 42.3 °F /  5.7 °C 29.7in /  1007.0hPa Sur 3mph /  4.9km/h 5mph /  8km/h 49.9% 0in /  0.0mm
07:54 61.2 °F /  16.2 °C 42.3 °F /  5.7 °C 29.7in /  1007.0hPa Sur 2.9mph /  4.7km/h 5mph /  8km/h 49.7% 0in /  0.0mm
07:59 61.5 °F /  16.4 °C 42.4 °F /  5.8 °C 29.7in /  1007.0hPa SSE 2.5mph /  4.1km/h 4.6mph /  7.4km/h 49.3% 0in /  0.0mm
08:04 61.9 °F /  16.6 °C 43.3 °F /  6.3 °C 29.7in /  1007.0hPa SSE 2mph /  3.2km/h 5mph /  8km/h 50.8% 0in /  0.0mm
08:09 62.1 °F /  16.7 °C 43.9 °F /  6.6 °C 29.7in /  1007.0hPa SSE 1.9mph /  3.1km/h 3mph /  4.8km/h 51.5% 0in /  0.0mm
08:14 62.2 °F /  16.8 °C 44.8 °F /  7.1 °C 29.7in /  1007.0hPa SSE 1.8mph /  2.9km/h 4.6mph /  7.4km/h 52.5% 0in /  0.0mm
08:19 62.6 °F /  17 °C 44.8 °F /  7.1 °C 29.7in /  1007.0hPa ESE 1.7mph /  2.7km/h 5mph /  8km/h 52.2% 0in /  0.0mm
08:24 63 °F /  17.2 °C 44.6 °F /  7 °C 29.7in /  1006.9hPa NE 1.4mph /  2.2km/h 3mph /  4.8km/h 51.1% 0in /  0.0mm
08:29 63 °F /  17.2 °C 44.1 °F /  6.7 °C 29.7in /  1006.9hPa NE 1.4mph /  2.2km/h 3mph /  4.8km/h 50% 0in /  0.0mm
08:34 63 °F /  17.2 °C 44.1 °F /  6.7 °C 29.7in /  1006.9hPa NE 1.4mph /  2.2km/h 3.6mph /  5.8km/h 50% 0in /  0.0mm
08:39 63 °F /  17.2 °C 43.9 °F /  6.6 °C 29.7in /  1006.9hPa NNO 1.4mph /  2.2km/h 4.6mph /  7.4km/h 49.7% 0in /  0.0mm
08:44 63 °F /  17.2 °C 44.1 °F /  6.7 °C 29.7in /  1006.9hPa NO 1.4mph /  2.2km/h 5mph /  8km/h 50.1% 0in /  0.0mm
08:49 63 °F /  17.2 °C 45 °F /  7.2 °C 29.7in /  1007.2hPa NO 1.6mph /  2.6km/h 5mph /  8km/h 51.8% 0in /  0.0mm
08:54 63.1 °F /  17.3 °C 44.8 °F /  7.1 °C 29.7in /  1007.2hPa ONO 2mph /  3.2km/h 4.6mph /  7.4km/h 51.2% 0in /  0.0mm
08:59 63.1 °F /  17.3 °C 43.7 °F /  6.5 °C 29.7in /  1007.2hPa ONO 2.2mph /  3.5km/h 5.8mph /  9.3km/h 48.9% 0in /  0.0mm
09:04 63.3 °F /  17.4 °C 42.6 °F /  5.9 °C 29.8in /  1007.5hPa ONO 2.4mph /  3.9km/h 6mph /  9.7km/h 46.6% 0in /  0.0mm
09:09 63.9 °F /  17.7 °C 41.2 °F /  5.1 °C 29.8in /  1007.5hPa OSO 2.6mph /  4.2km/h 5mph /  8km/h 43.5% 0in /  0.0mm
09:14 64.4 °F /  18 °C 40.6 °F /  4.8 °C 29.8in /  1007.5hPa SSO 2.9mph /  4.7km/h 6.2mph /  10km/h 41.6% 0in /  0.0mm
09:19 64.9 °F /  18.3 °C 40.1 °F /  4.5 °C 29.8in /  1007.5hPa SSO 3.2mph /  5.1km/h 6.2mph /  10km/h 40% 0in /  0.0mm
09:24 65.5 °F /  18.6 °C 40.6 °F /  4.8 °C 29.8in /  1007.5hPa SSE 3.6mph /  5.8km/h 6mph /  9.7km/h 40% 0in /  0.0mm
09:29 65.8 °F /  18.8 °C 40.5 °F /  4.7 °C 29.8in /  1007.5hPa SE 3.4mph /  5.5km/h 6.2mph /  10km/h 39.2% 0in /  0.0mm
09:34 66 °F /  18.9 °C 40.3 °F /  4.6 °C 29.8in /  1007.6hPa Sur 3.1mph /  5km/h 6mph /  9.7km/h 38.8% 0in /  0.0mm
09:39 66.4 °F /  19.1 °C 40.5 °F /  4.7 °C 29.8in /  1007.6hPa SO 3.1mph /  5km/h 5.2mph /  8.4km/h 38.6% 0in /  0.0mm
09:44 66.6 °F /  19.2 °C 40.3 °F /  4.6 °C 29.8in /  1007.6hPa OSO 3.1mph /  5km/h 5mph /  8km/h 38.1% 0in /  0.0mm
09:49 66.9 °F /  19.4 °C 40.1 °F /  4.5 °C 29.8in /  1007.6hPa OSO 2.8mph /  4.5km/h 5.2mph /  8.4km/h 37.6% 0in /  0.0mm
09:54 67.1 °F /  19.5 °C 40.5 °F /  4.7 °C 29.7in /  1007.3hPa ONO 2.4mph /  3.9km/h 5mph /  8km/h 37.7% 0in /  0.0mm
09:59 67.6 °F /  19.8 °C 41 °F /  5 °C 29.7in /  1007.3hPa SO 2.4mph /  3.9km/h 5mph /  8km/h 37.8% 0in /  0.0mm
10:04 67.8 °F /  19.9 °C 40.6 °F /  4.8 °C 29.7in /  1007.3hPa OSO 2.4mph /  3.9km/h 5mph /  8km/h 37% 0in /  0.0mm
10:09 68.4 °F /  20.2 °C 40.8 °F /  4.9 °C 29.7in /  1007.2hPa OSO 2.2mph /  3.5km/h 5.2mph /  8.4km/h 36.7% 0in /  0.0mm
10:14 68.7 °F /  20.4 °C 40.5 °F /  4.7 °C 29.7in /  1007.2hPa OSO 1.8mph /  2.9km/h 5mph /  8km/h 35.9% 0in /  0.0mm
10:19 69.3 °F /  20.7 °C 40.5 °F /  4.7 °C 29.7in /  1007.2hPa NNO 1.9mph /  3km/h 6.2mph /  10km/h 35.1% 0in /  0.0mm
10:24 69.8 °F /  21 °C 40.8 °F /  4.9 °C 29.7in /  1007.1hPa OSO 2mph /  3.2km/h 6.9mph /  11.1km/h 34.9% 0in /  0.0mm
10:29 69.8 °F /  21 °C 39.6 °F /  4.2 °C 29.7in /  1007.1hPa NO 2.4mph /  3.9km/h 8.5mph /  13.7km/h 33.1% 0in /  0.0mm
10:34 70.2 °F /  21.2 °C 39.9 °F /  4.4 °C 29.7in /  1007.1hPa Oeste 3.1mph /  5km/h 9mph /  14.5km/h 33.4% 0in /  0.0mm
10:39 70.2 °F /  21.2 °C 39.6 °F /  4.2 °C 29.7in /  1007.0hPa OSO 3.9mph /  6.3km/h 9.2mph /  14.8km/h 32.9% 0in /  0.0mm
10:44 70 °F /  21.1 °C 39.2 °F /  4 °C 29.7in /  1007.0hPa OSO 5.2mph /  8.4km/h 9mph /  14.5km/h 32.6% 0in /  0.0mm
10:49 70 °F /  21.1 °C 39.6 °F /  4.2 °C 29.7in /  1007.0hPa OSO 5mph /  8.1km/h 10.4mph /  16.7km/h 33% 0in /  0.0mm
10:54 69.8 °F /  21 °C 39.2 °F /  4 °C 29.7in /  1007.0hPa OSO 4.7mph /  7.6km/h 10mph /  16.1km/h 32.8% 0in /  0.0mm
10:59 69.6 °F /  20.9 °C 39.2 °F /  4 °C 29.7in /  1007.0hPa ONO 4.7mph /  7.6km/h 9mph /  14.5km/h 33% 0in /  0.0mm
11:04 70 °F /  21.1 °C 39.6 °F /  4.2 °C 29.7in /  1007.0hPa North 4.7mph /  7.6km/h 7mph /  11.3km/h 33% 0in /  0.0mm
11:09 70.2 °F /  21.2 °C 39.2 °F /  4 °C 29.7in /  1007.0hPa Oeste 4.2mph /  6.7km/h 6mph /  9.7km/h 32.3% 0in /  0.0mm
11:14 70.3 °F /  21.3 °C 39 °F /  3.9 °C 29.7in /  1007.0hPa SSO 3.1mph /  5km/h 6mph /  9.7km/h 32% 0in /  0.0mm
11:19 70.5 °F /  21.4 °C 39.2 °F /  4 °C 29.7in /  1007.0hPa SSO 3mph /  4.9km/h 7.4mph /  11.9km/h 32% 0in /  0.0mm
11:24 70.9 °F /  21.6 °C 39.6 °F /  4.2 °C 29.7in /  1007.0hPa OSO 2.9mph /  4.7km/h 7mph /  11.3km/h 32% 0in /  0.0mm
11:29 71.1 °F /  21.7 °C 39.2 °F /  4 °C 29.7in /  1007.0hPa ONO 3mph /  4.8km/h 8.1mph /  13km/h 31.3% 0in /  0.0mm
11:34 71.6 °F /  22 °C 39.2 °F /  4 °C 29.7in /  1007.0hPa NNE 3.1mph /  5km/h 8mph /  12.9km/h 31% 0in /  0.0mm
11:39 72.3 °F /  22.4 °C 39.6 °F /  4.2 °C 29.7in /  1006.9hPa NE 2.6mph /  4.2km/h 10.4mph /  16.7km/h 30.5% 0in /  0.0mm
11:44 72.7 °F /  22.6 °C 38.5 °F /  3.6 °C 29.7in /  1006.9hPa Oeste 1.8mph /  2.9km/h 10.4mph /  16.7km/h 28.9% 0in /  0.0mm
11:49 72.5 °F /  22.5 °C 38.1 °F /  3.4 °C 29.7in /  1006.9hPa OSO 3.2mph /  5.1km/h 9.2mph /  14.8km/h 28.8% 0in /  0.0mm
11:54 72.3 °F /  22.4 °C 38.5 °F /  3.6 °C 29.7in /  1006.8hPa Oeste 5.4mph /  8.7km/h 16.1mph /  25.9km/h 29.2% 0in /  0.0mm
11:59 72.1 °F /  22.3 °C 38.5 °F /  3.6 °C 29.7in /  1006.8hPa ONO 6.3mph /  10.1km/h 16.1mph /  25.9km/h 29.4% 0in /  0.0mm
12:04 72.1 °F /  22.3 °C 38.1 °F /  3.4 °C 29.7in /  1006.9hPa OSO 7.4mph /  11.9km/h 16mph /  25.7km/h 29.1% 0in /  0.0mm
12:09 72.1 °F /  22.3 °C 38.3 °F /  3.5 °C 29.7in /  1006.9hPa SO 7mph /  11.3km/h 15mph /  24.1km/h 29.2% 0in /  0.0mm
12:14 72.3 °F /  22.4 °C 39 °F /  3.9 °C 29.7in /  1006.9hPa Oeste 6.4mph /  10.3km/h 13.5mph /  21.7km/h 29.8% 0in /  0.0mm
12:19 72.3 °F /  22.4 °C 39.2 °F /  4 °C 29.7in /  1006.9hPa NO 6.4mph /  10.3km/h 14mph /  22.5km/h 30% 0in /  0.0mm
12:24 72.1 °F /  22.3 °C 39.2 °F /  4 °C 29.7in /  1006.9hPa ONO 6.4mph /  10.3km/h 14mph /  22.5km/h 30.3% 0in /  0.0mm
12:29 72.1 °F /  22.3 °C 39 °F /  3.9 °C 29.7in /  1006.9hPa ONO 6.4mph /  10.3km/h 12mph /  19.3km/h 29.9% 0in /  0.0mm
12:34 72.5 °F /  22.5 °C 39 °F /  3.9 °C 29.7in /  1006.9hPa Oeste 6.4mph /  10.3km/h 12.7mph /  20.4km/h 29.7% 0in /  0.0mm
12:39 72.7 °F /  22.6 °C 38.7 °F /  3.7 °C 29.7in /  1006.9hPa NO 5.6mph /  9km/h 13mph /  20.9km/h 29.1% 0in /  0.0mm
12:44 72.5 °F /  22.5 °C 38.8 °F /  3.8 °C 29.7in /  1006.9hPa ONO 4.3mph /  6.9km/h 10.4mph /  16.7km/h 29.6% 0in /  0.0mm
12:49 72.3 °F /  22.4 °C 39 °F /  3.9 °C 29.7in /  1006.9hPa NO 4.7mph /  7.5km/h 11.5mph /  18.5km/h 29.8% 0in /  0.0mm
12:54 72.5 °F /  22.5 °C 39.2 °F /  4 °C 29.7in /  1006.9hPa NO 5.2mph /  8.4km/h 12.7mph /  20.4km/h 29.8% 0in /  0.0mm
12:59 72.5 °F /  22.5 °C 38.8 °F /  3.8 °C 29.7in /  1006.9hPa ONO 5mph /  8km/h 13mph /  20.9km/h 29.4% 0in /  0.0mm
13:04 72.9 °F /  22.7 °C 39.7 °F /  4.3 °C 29.7in /  1006.9hPa NNO 4.7mph /  7.6km/h 8.1mph /  13km/h 30.1% 0in /  0.0mm
13:09 73.4 °F /  23 °C 39.7 °F /  4.3 °C 29.7in /  1006.5hPa NO 4.3mph /  6.9km/h 11.4mph /  18.3km/h 29.5% 0in /  0.0mm
13:14 73.6 °F /  23.1 °C 39 °F /  3.9 °C 29.7in /  1006.5hPa SO 3.6mph /  5.8km/h 13.5mph /  21.7km/h 28.7% 0in /  0.0mm
13:19 73.2 °F /  22.9 °C 38.8 °F /  3.8 °C 29.7in /  1006.5hPa SSO 4.9mph /  7.9km/h 13mph /  20.9km/h 28.8% 0in /  0.0mm
13:24 73.2 °F /  22.9 °C 39 °F /  3.9 °C 29.7in /  1006.5hPa Oeste 6.9mph /  11.1km/h 17.5mph /  28.2km/h 29% 0in /  0.0mm
13:29 73.6 °F /  23.1 °C 38.7 °F /  3.7 °C 29.7in /  1006.5hPa ONO 7.2mph /  11.6km/h 17.3mph /  27.8km/h 28.3% 0in /  0.0mm
13:34 73.8 °F /  23.2 °C 39.2 °F /  4 °C 29.7in /  1006.5hPa ONO 7.6mph /  12.2km/h 17mph /  27.4km/h 28.6% 0in /  0.0mm
13:39 73.6 °F /  23.1 °C 38.5 °F /  3.6 °C 29.7in /  1006.4hPa NO 7.5mph /  12.1km/h 14mph /  22.5km/h 28% 0in /  0.0mm
13:44 73.4 °F /  23 °C 38.3 °F /  3.5 °C 29.7in /  1006.4hPa NO 7.4mph /  11.9km/h 10mph /  16.1km/h 28% 0in /  0.0mm
13:49 73.6 °F /  23.1 °C 38.3 °F /  3.5 °C 29.7in /  1006.4hPa NO 6.3mph /  10.2km/h 10.7mph /  17.2km/h 27.8% 0in /  0.0mm
13:54 73.8 °F /  23.2 °C 38.3 °F /  3.5 °C 29.7in /  1006.2hPa NO 4.7mph /  7.6km/h 12.5mph /  20.1km/h 27.7% 0in /  0.0mm
13:59 73.8 °F /  23.2 °C 37.8 °F /  3.2 °C 29.7in /  1006.2hPa OSO 5.2mph /  8.4km/h 13mph /  20.9km/h 27.1% 0in /  0.0mm
14:04 73.6 °F /  23.1 °C 37.8 °F /  3.2 °C 29.7in /  1006.2hPa NE 5.9mph /  9.5km/h 13mph /  20.9km/h 27.3% 0in /  0.0mm
14:09 73.8 °F /  23.2 °C 38.3 °F /  3.5 °C 29.7in /  1006.2hPa NO 5.7mph /  9.1km/h 11.8mph /  19km/h 27.8% 0in /  0.0mm
14:14 73.8 °F /  23.2 °C 37.8 °F /  3.2 °C 29.7in /  1006.2hPa Oeste 5.2mph /  8.4km/h 13mph /  20.9km/h 27% 0in /  0.0mm
14:19 73.8 °F /  23.2 °C 38.3 °F /  3.5 °C 29.7in /  1006.2hPa ONO 5.6mph /  9km/h 13.8mph /  22.2km/h 27.6% 0in /  0.0mm
14:24 74.3 °F /  23.5 °C 38.3 °F /  3.5 °C 29.7in /  1006.1hPa NO 6.2mph /  10km/h 19mph /  30.6km/h 27.1% 0in /  0.0mm
14:29 74.3 °F /  23.5 °C 37.9 °F /  3.3 °C 29.7in /  1006.1hPa ONO 7.1mph /  11.5km/h 19mph /  30.6km/h 26.9% 0in /  0.0mm
14:34 74.1 °F /  23.4 °C 37.9 °F /  3.3 °C 29.7in /  1006.2hPa NO 8.5mph /  13.7km/h 15mph /  24.1km/h 27% 0in /  0.0mm
14:39 73.9 °F /  23.3 °C 37.8 °F /  3.2 °C 29.7in /  1006.2hPa North 7.9mph /  12.7km/h 14mph /  22.5km/h 26.9% 0in /  0.0mm
14:44 73.9 °F /  23.3 °C 37.9 °F /  3.3 °C 29.7in /  1006.2hPa NO 6.9mph /  11.1km/h 13mph /  20.9km/h 27.2% 0in /  0.0mm
14:49 74.3 °F /  23.5 °C 37.9 °F /  3.3 °C 29.7in /  1006.2hPa NO 6.6mph /  10.7km/h 13.8mph /  22.2km/h 26.8% 0in /  0.0mm
14:54 74.5 °F /  23.6 °C 37.8 °F /  3.2 °C 29.7in /  1006.1hPa NO 6.2mph /  10km/h 14mph /  22.5km/h 26.6% 0in /  0.0mm
14:59 74.1 °F /  23.4 °C 37.9 °F /  3.3 °C 29.7in /  1006.1hPa ONO 6.3mph /  10.1km/h 17.5mph /  28.2km/h 27% 0in /  0.0mm
15:04 73.9 °F /  23.3 °C 37.9 °F /  3.3 °C 29.7in /  1006.1hPa ONO 6.4mph /  10.3km/h 17.3mph /  27.8km/h 27% 0in /  0.0mm
15:09 73.9 °F /  23.3 °C 37.9 °F /  3.3 °C 29.7in /  1005.9hPa OSO 6.4mph /  10.3km/h 14mph /  22.5km/h 27% 0in /  0.0mm
15:14 74.5 °F /  23.6 °C 37.4 °F /  3 °C 29.7in /  1005.9hPa ONO 6.4mph /  10.3km/h 8.1mph /  13km/h 26.1% 0in /  0.0mm
15:19 74.7 °F /  23.7 °C 37.9 °F /  3.3 °C 29.7in /  1005.9hPa NNO 5.6mph /  9km/h 11.8mph /  19km/h 26.5% 0in /  0.0mm
15:24 74.5 °F /  23.6 °C 37.4 °F /  3 °C 29.7in /  1005.6hPa NO 4.3mph /  6.9km/h 12mph /  19.3km/h 26% 0in /  0.0mm
15:29 74.5 °F /  23.6 °C 38.1 °F /  3.4 °C 29.7in /  1005.6hPa NNO 5mph /  8km/h 14.7mph /  23.7km/h 26.8% 0in /  0.0mm
15:34 74.5 °F /  23.6 °C 37.6 °F /  3.1 °C 29.7in /  1005.9hPa NO 5.9mph /  9.5km/h 16.1mph /  25.9km/h 26.3% 0in /  0.0mm
15:39 74.1 °F /  23.4 °C 37 °F /  2.8 °C 29.7in /  1005.9hPa ONO 7mph /  11.2km/h 16mph /  25.7km/h 26.1% 0in /  0.0mm
15:44 73.9 °F /  23.3 °C 37.2 °F /  2.9 °C 29.7in /  1005.9hPa NO 8.7mph /  14km/h 13mph /  20.9km/h 26.3% 0in /  0.0mm
15:49 73.9 °F /  23.3 °C 37 °F /  2.8 °C 29.7in /  1005.9hPa ONO 7.6mph /  12.3km/h 10.4mph /  16.7km/h 26.1% 0in /  0.0mm
15:54 73.9 °F /  23.3 °C 37 °F /  2.8 °C 29.7in /  1005.7hPa ONO 5.9mph /  9.5km/h 10mph /  16.1km/h 26.1% 0in /  0.0mm
15:57 74.1 °F /  23.4 °C 37 °F /  2.8 °C 29.7in /  1005.7hPa ONO 5.9mph /  9.5km/h 7mph /  11.3km/h 26% 0in /  0.0mm
17:09 73 °F /  22.8 °C 50.4 °F /  10.2 °C 29.7in /  1005.7hPa ENE 4.5mph /  7.2km/h 9.2mph /  14.8km/h 44.7% 0in /  0.0mm
17:14 72.5 °F /  22.5 °C 51.1 °F /  10.6 °C 29.7in /  1005.2hPa Este 4.7mph /  7.6km/h 9.2mph /  14.8km/h 46.9% 0in /  0.0mm
17:19 72.1 °F /  22.3 °C 50.4 °F /  10.2 °C 29.7in /  1005.5hPa ESE 5mph /  8km/h 9.7mph /  15.6km/h 46.5% 0in /  0.0mm
17:24 72.1 °F /  22.3 °C 49.8 °F /  9.9 °C 29.7in /  1005.5hPa ENE 5.4mph /  8.7km/h 10.4mph /  16.7km/h 45.6% 0in /  0.0mm
17:29 72.1 °F /  22.3 °C 48.6 °F /  9.2 °C 29.7in /  1005.5hPa NNE 5.4mph /  8.7km/h 10.7mph /  17.2km/h 43.1% 0in /  0.0mm
17:34 72.3 °F /  22.4 °C 48.7 °F /  9.3 °C 29.7in /  1005.5hPa NE 5.4mph /  8.7km/h 11mph /  17.7km/h 43.3% 0in /  0.0mm
17:39 72.5 °F /  22.5 °C 48.2 °F /  9 °C 29.7in /  1005.5hPa NE 4.8mph /  7.8km/h 8.1mph /  13km/h 42.1% 0in /  0.0mm
17:44 72.7 °F /  22.6 °C 48.4 °F /  9.1 °C 29.7in /  1005.5hPa NE 4mph /  6.5km/h 9.2mph /  14.8km/h 42.2% 0in /  0.0mm
17:49 72.7 °F /  22.6 °C 48.2 °F /  9 °C 29.7in /  1005.6hPa ENE 4.5mph /  7.2km/h 10.4mph /  16.7km/h 41.7% 0in /  0.0mm
17:54 72.7 °F /  22.6 °C 48.7 °F /  9.3 °C 29.7in /  1005.6hPa Este 5.2mph /  8.4km/h 10mph /  16.1km/h 42.6% 0in /  0.0mm
17:59 72.7 °F /  22.6 °C 48 °F /  8.9 °C 29.7in /  1005.6hPa ENE 4.8mph /  7.8km/h 10.4mph /  16.7km/h 41.6% 0in /  0.0mm
18:04 72.5 °F /  22.5 °C 49.8 °F /  9.9 °C 29.7in /  1005.8hPa NE 4.3mph /  6.9km/h 12.5mph /  20.1km/h 45% 0in /  0.0mm
18:09 72.1 °F /  22.3 °C 50.2 °F /  10.1 °C 29.7in /  1005.8hPa NE 5.8mph /  9.4km/h 15mph /  24.1km/h 45.8% 0in /  0.0mm
18:14 72.1 °F /  22.3 °C 50.7 °F /  10.4 °C 29.7in /  1005.8hPa NE 8.1mph /  13km/h 15mph /  24.1km/h 47% 0in /  0.0mm
18:19 72 °F /  22.2 °C 52 °F /  11.1 °C 29.7in /  1005.9hPa NE 8.3mph /  13.3km/h 15.9mph /  25.6km/h 49.7% 0in /  0.0mm
18:24 71.4 °F /  21.9 °C 52.3 °F /  11.3 °C 29.7in /  1005.9hPa NE 8.5mph /  13.7km/h 16.1mph /  25.9km/h 50.8% 0in /  0.0mm
18:29 71.4 °F /  21.9 °C 52.3 °F /  11.3 °C 29.7in /  1005.9hPa NE 8.5mph /  13.7km/h 14mph /  22.5km/h 51.1% 0in /  0.0mm
18:34 71.2 °F /  21.8 °C 53.8 °F /  12.1 °C 29.7in /  1006.2hPa NNE 8.5mph /  13.7km/h 14mph /  22.5km/h 54.2% 0in /  0.0mm
18:39 70.9 °F /  21.6 °C 53.8 °F /  12.1 °C 29.7in /  1006.2hPa NE 8.9mph /  14.4km/h 17.3mph /  27.8km/h 55.1% 0in /  0.0mm
18:44 70.5 °F /  21.4 °C 53.4 °F /  11.9 °C 29.7in /  1006.2hPa NE 9.7mph /  15.6km/h 17mph /  27.4km/h 54.5% 0in /  0.0mm
18:49 70.5 °F /  21.4 °C 53.1 °F /  11.7 °C 29.7in /  1006.2hPa NE 9.1mph /  14.7km/h 13.8mph /  22.2km/h 54% 0in /  0.0mm
18:54 70.9 °F /  21.6 °C 52 °F /  11.1 °C 29.7in /  1006.2hPa NE 8.1mph /  13km/h 14mph /  22.5km/h 51.1% 0in /  0.0mm
18:59 71.1 °F /  21.7 °C 53.2 °F /  11.8 °C 29.7in /  1006.2hPa NE 8.1mph /  13km/h 14mph /  22.5km/h 53.4% 0in /  0.0mm
19:04 71.1 °F /  21.7 °C 54.7 °F /  12.6 °C 29.7in /  1006.3hPa NNE 8.1mph /  13km/h 13mph /  20.9km/h 56.3% 0in /  0.0mm
19:09 70.5 °F /  21.4 °C 54.3 °F /  12.4 °C 29.7in /  1006.3hPa NE 7.6mph /  12.3km/h 13mph /  20.9km/h 56.3% 0in /  0.0mm
19:14 70.3 °F /  21.3 °C 53.4 °F /  11.9 °C 29.7in /  1006.3hPa NE 6.9mph /  11.1km/h 13mph /  20.9km/h 54.9% 0in /  0.0mm
19:19 70.5 °F /  21.4 °C 53.1 °F /  11.7 °C 29.7in /  1006.3hPa NE 7.1mph /  11.5km/h 13mph /  20.9km/h 53.9% 0in /  0.0mm
19:24 70.7 °F /  21.5 °C 53.4 °F /  11.9 °C 29.7in /  1006.3hPa NNE 7.6mph /  12.2km/h 12.7mph /  20.4km/h 54.5% 0in /  0.0mm
19:29 70.7 °F /  21.5 °C 54.9 °F /  12.7 °C 29.7in /  1006.3hPa NE 7.1mph /  11.4km/h 13.7mph /  22km/h 57.4% 0in /  0.0mm
19:34 70.3 °F /  21.3 °C 54.1 °F /  12.3 °C 29.7in /  1006.4hPa NE 6.2mph /  10km/h 15mph /  24.1km/h 56.6% 0in /  0.0mm
19:39 70.3 °F /  21.3 °C 52.9 °F /  11.6 °C 29.7in /  1006.4hPa NE 7.1mph /  11.5km/h 15mph /  24.1km/h 54.3% 0in /  0.0mm
19:44 70.3 °F /  21.3 °C 52.5 °F /  11.4 °C 29.7in /  1006.4hPa NNE 8.7mph /  14km/h 13mph /  20.9km/h 53.3% 0in /  0.0mm
19:49 70.5 °F /  21.4 °C 53.2 °F /  11.8 °C 29.7in /  1006.6hPa NNE 7.8mph /  12.5km/h 9.2mph /  14.8km/h 54.1% 0in /  0.0mm
19:54 70.3 °F /  21.3 °C 54.5 °F /  12.5 °C 29.7in /  1006.6hPa NNE 6.2mph /  10km/h 15.2mph /  24.5km/h 57.1% 0in /  0.0mm
19:59 70.2 °F /  21.2 °C 55.8 °F /  13.2 °C 29.7in /  1006.6hPa NNE 7mph /  11.2km/h 15mph /  24.1km/h 60.4% 0in /  0.0mm
20:04 70 °F /  21.1 °C 56.1 °F /  13.4 °C 29.7in /  1006.9hPa NE 8.1mph /  13km/h 13.8mph /  22.2km/h 61.4% 0in /  0.0mm
20:09 69.6 °F /  20.9 °C 56.5 °F /  13.6 °C 29.7in /  1006.9hPa NE 8.3mph /  13.3km/h 15.2mph /  24.5km/h 62.6% 0in /  0.0mm
20:14 69.4 °F /  20.8 °C 56.7 °F /  13.7 °C 29.7in /  1006.9hPa NE 8.5mph /  13.7km/h 15.2mph /  24.5km/h 63.7% 0in /  0.0mm
20:19 69.3 °F /  20.7 °C 56.1 °F /  13.4 °C 29.7in /  1007.0hPa NE 8.6mph /  13.8km/h 15.2mph /  24.5km/h 63% 0in /  0.0mm
20:24 69.1 °F /  20.6 °C 56.3 °F /  13.5 °C 29.7in /  1007.0hPa NE 8.7mph /  14km/h 15mph /  24.1km/h 63.7% 0in /  0.0mm
20:29 68.7 °F /  20.4 °C 56.3 °F /  13.5 °C 29.7in /  1007.0hPa NE 8.7mph /  14km/h 16.1mph /  25.9km/h 64.5% 0in /  0.0mm
20:34 68.5 °F /  20.3 °C 56.3 °F /  13.5 °C 29.7in /  1007.1hPa NE 8.7mph /  14km/h 16.1mph /  25.9km/h 65% 0in /  0.0mm
20:39 68.4 °F /  20.2 °C 56.7 °F /  13.7 °C 29.7in /  1007.1hPa NE 8.7mph /  14km/h 16mph /  25.7km/h 66% 0in /  0.0mm
20:44 68.2 °F /  20.1 °C 56.7 °F /  13.7 °C 29.7in /  1007.1hPa NNE 8.7mph /  14km/h 15.2mph /  24.5km/h 66.3% 0in /  0.0mm
20:49 67.8 °F /  19.9 °C 56.5 °F /  13.6 °C 29.8in /  1007.4hPa NE 8.9mph /  14.3km/h 16.1mph /  25.9km/h 67.3% 0in /  0.0mm
20:54 67.5 °F /  19.7 °C 56.5 °F /  13.6 °C 29.8in /  1007.4hPa NE 9.2mph /  14.8km/h 16mph /  25.7km/h 68% 0in /  0.0mm
20:59 67.3 °F /  19.6 °C 56.7 °F /  13.7 °C 29.8in /  1007.4hPa NE 8.8mph /  14.1km/h 14mph /  22.5km/h 68.7% 0in /  0.0mm
21:04 66.9 °F /  19.4 °C 56.7 °F /  13.7 °C 29.8in /  1007.5hPa NE 8.1mph /  13km/h 14mph /  22.5km/h 69.8% 0in /  0.0mm
21:09 66.7 °F /  19.3 °C 56.8 °F /  13.8 °C 29.8in /  1007.5hPa NE 8.1mph /  13km/h 13mph /  20.9km/h 70.8% 0in /  0.0mm
21:14 66.6 °F /  19.2 °C 56.8 °F /  13.8 °C 29.8in /  1007.5hPa NNE 8.1mph /  13km/h 10.4mph /  16.7km/h 71% 0in /  0.0mm
21:19 66.4 °F /  19.1 °C 57 °F /  13.9 °C 29.8in /  1007.7hPa NE 7.5mph /  12km/h 10.7mph /  17.2km/h 72% 0in /  0.0mm
21:24 66 °F /  18.9 °C 56.8 °F /  13.8 °C 29.8in /  1007.7hPa NNE 6.4mph /  10.3km/h 11mph /  17.7km/h 72.1% 0in /  0.0mm
21:29 65.8 °F /  18.8 °C 57 °F /  13.9 °C 29.8in /  1007.7hPa NE 6.8mph /  10.9km/h 11.8mph /  19km/h 73% 0in /  0.0mm
21:34 65.7 °F /  18.7 °C 56.8 °F /  13.8 °C 29.8in /  1008.0hPa NNE 7.4mph /  11.9km/h 12mph /  19.3km/h 73.2% 0in /  0.0mm
21:39 65.5 °F /  18.6 °C 57 °F /  13.9 °C 29.8in /  1008.0hPa NE 7.2mph /  11.6km/h 12mph /  19.3km/h 74% 0in /  0.0mm
21:44 65.1 °F /  18.4 °C 56.7 °F /  13.7 °C 29.8in /  1008.0hPa NE 6.9mph /  11.1km/h 12.3mph /  19.8km/h 74.2% 0in /  0.0mm
21:49 64.9 °F /  18.3 °C 56.8 °F /  13.8 °C 29.8in /  1008.1hPa NE 7.3mph /  11.8km/h 13mph /  20.9km/h 75% 0in /  0.0mm
21:54 64.8 °F /  18.2 °C 56.7 °F /  13.7 °C 29.8in /  1008.1hPa NNE 8.1mph /  13km/h 13mph /  20.9km/h 75% 0in /  0.0mm
21:59 64.8 °F /  18.2 °C 56.5 °F /  13.6 °C 29.8in /  1008.1hPa NNE 8.1mph /  13km/h 13.8mph /  22.2km/h 75% 0in /  0.0mm
22:04 64.6 °F /  18.1 °C 56.5 °F /  13.6 °C 29.8in /  1008.5hPa NNE 8.1mph /  13km/h 14mph /  22.5km/h 75.2% 0in /  0.0mm
22:09 64.2 °F /  17.9 °C 56.7 °F /  13.7 °C 29.8in /  1008.5hPa NNE 8.3mph /  13.4km/h 13mph /  20.9km/h 76% 0in /  0.0mm
22:14 64.2 °F /  17.9 °C 56.5 °F /  13.6 °C 29.8in /  1008.5hPa NE 8.7mph /  14km/h 13mph /  20.9km/h 76% 0in /  0.0mm
22:19 64 °F /  17.8 °C 56.3 °F /  13.5 °C 29.8in /  1008.6hPa NE 8.3mph /  13.3km/h 14mph /  22.5km/h 76% 0in /  0.0mm
22:24 64 °F /  17.8 °C 56.3 °F /  13.5 °C 29.8in /  1008.6hPa NE 7.6mph /  12.2km/h 14mph /  22.5km/h 76% 0in /  0.0mm
22:29 63.9 °F /  17.7 °C 56.3 °F /  13.5 °C 29.8in /  1008.6hPa NE 7.5mph /  12.1km/h 12mph /  19.3km/h 76.2% 0in /  0.0mm
22:34 63.9 °F /  17.7 °C 56.5 °F /  13.6 °C 29.8in /  1008.9hPa NE 7.4mph /  11.9km/h 11.5mph /  18.5km/h 77% 0in /  0.0mm
22:39 63.7 °F /  17.6 °C 56.3 °F /  13.5 °C 29.8in /  1008.9hPa NE 7mph /  11.3km/h 12mph /  19.3km/h 77% 0in /  0.0mm
22:44 63.5 °F /  17.5 °C 56.3 °F /  13.5 °C 29.8in /  1008.9hPa NE 6.4mph /  10.3km/h 11mph /  17.7km/h 77.5% 0in /  0.0mm
22:49 63.3 °F /  17.4 °C 56.3 °F /  13.5 °C 29.8in /  1009.1hPa NE 6.4mph /  10.3km/h 10.7mph /  17.2km/h 78% 0in /  0.0mm
22:54 63.3 °F /  17.4 °C 56.3 °F /  13.5 °C 29.8in /  1009.1hPa NE 6.4mph /  10.3km/h 11.2mph /  18km/h 78% 0in /  0.0mm
22:59 63.3 °F /  17.4 °C 56.3 °F /  13.5 °C 29.8in /  1009.1hPa NE 6.4mph /  10.3km/h 11mph /  17.7km/h 78% 0in /  0.0mm
23:04 63.1 °F /  17.3 °C 56.5 °F /  13.6 °C 29.8in /  1009.2hPa NE 6.4mph /  10.3km/h 10.4mph /  16.7km/h 78.9% 0in /  0.0mm
23:09 63 °F /  17.2 °C 56.3 °F /  13.5 °C 29.8in /  1009.2hPa NE 6.4mph /  10.3km/h 11.5mph /  18.5km/h 79% 0in /  0.0mm
23:14 63 °F /  17.2 °C 56.3 °F /  13.5 °C 29.8in /  1009.2hPa NNE 6.4mph /  10.3km/h 12mph /  19.3km/h 79% 0in /  0.0mm
23:19 62.8 °F /  17.1 °C 56.1 °F /  13.4 °C 29.8in /  1009.3hPa NNE 5.8mph /  9.3km/h 9.2mph /  14.8km/h 79.1% 0in /  0.0mm
23:24 62.6 °F /  17 °C 56.3 °F /  13.5 °C 29.8in /  1009.3hPa NE 4.7mph /  7.6km/h 11.5mph /  18.5km/h 80% 0in /  0.0mm
23:29 62.8 °F /  17.1 °C 56.5 °F /  13.6 °C 29.8in /  1009.3hPa NE 5.2mph /  8.3km/h 12mph /  19.3km/h 80% 0in /  0.0mm
23:34 62.8 °F /  17.1 °C 56.5 °F /  13.6 °C 29.8in /  1009.3hPa NE 5.9mph /  9.5km/h 10mph /  16.1km/h 80% 0in /  0.0mm
23:39 62.4 °F /  16.9 °C 56.3 °F /  13.5 °C 29.8in /  1009.3hPa NE 5.3mph /  8.5km/h 7mph /  11.3km/h 80% 0in /  0.0mm
23:44 62.4 °F /  16.9 °C 56.1 °F /  13.4 °C 29.8in /  1009.3hPa NE 4.3mph /  6.9km/h 7mph /  11.3km/h 80% 0in /  0.0mm
23:49 62.4 °F /  16.9 °C 56.1 °F /  13.4 °C 29.8in /  1009.3hPa NE 4.2mph /  6.8km/h 7mph /  11.3km/h 80% 0in /  0.0mm
23:54 62.4 °F /  16.9 °C 56.1 °F /  13.4 °C 29.8in /  1009.3hPa NNE 4mph /  6.5km/h 6mph /  9.7km/h 80% 0in /  0.0mm
23:59 62.4 °F /  16.9 °C 56.1 °F /  13.4 °C 29.8in /  1009.3hPa NNE 3.1mph /  5km/h 5mph /  8km/h 80% 0in /  0.0mm
Murcia-Puente Tocinos, España
Compliments of Weather Underground - 2.75 mb

La estación de MeteoMurcia.com, publica sus datos en los siguientes proyectos:

Weather Underground PWS IMURCIAP2 Meteoclimatic www.awekas.at

W3Counter
Web Analytics